createdAt,value
2018-02-13T00:01:21.041Z,77.40
2018-02-13T00:03:48.570Z,77.40
2018-02-13T00:06:16.053Z,77.30
2018-02-13T00:08:43.594Z,77.40
2018-02-13T00:11:11.624Z,77.60
2018-02-13T00:13:39.146Z,77.40
2018-02-13T00:16:06.649Z,77.40
2018-02-13T00:18:34.129Z,77.60
2018-02-13T00:21:01.616Z,77.70
2018-02-13T00:23:29.135Z,77.40
2018-02-13T00:25:56.656Z,77.50
2018-02-13T00:28:24.153Z,77.50
2018-02-13T00:30:51.671Z,77.30
2018-02-13T00:33:19.169Z,76.80
2018-02-13T00:35:47.458Z,76.60
2018-02-13T00:38:15.734Z,76.50
2018-02-13T00:40:44.007Z,76.60
2018-02-13T00:43:12.256Z,76.50
2018-02-13T00:45:39.777Z,76.30
2018-02-13T00:48:07.282Z,76.30
2018-02-13T00:50:34.789Z,75.70
2018-02-13T00:53:03.080Z,75.80
2018-02-13T00:55:30.622Z,75.80
2018-02-13T00:57:59.646Z,76.40
2018-02-13T01:00:27.276Z,76.30
2018-02-13T01:02:54.869Z,75.80
2018-02-13T01:05:22.450Z,75.60
2018-02-13T01:07:49.983Z,75.50
2018-02-13T01:10:18.261Z,76.10
2018-02-13T01:12:47.501Z,76.10
2018-02-13T01:15:15.022Z,76.10
2018-02-13T01:17:43.321Z,75.50
2018-02-13T01:20:11.649Z,75.60
2018-02-13T01:22:39.128Z,75.60
2018-02-13T01:25:06.613Z,75.80
2018-02-13T01:27:34.927Z,75.70
2018-02-13T01:30:02.444Z,75.60
2018-02-13T01:32:29.984Z,76.10
2018-02-13T01:34:57.474Z,75.70
2018-02-13T01:37:24.968Z,75.50
2018-02-13T01:39:52.474Z,75.50
2018-02-13T01:42:19.976Z,76.20
2018-02-13T01:44:48.228Z,76.60
2018-02-13T01:47:15.753Z,76.60
2018-02-13T01:49:43.243Z,76.80
2018-02-13T01:52:10.772Z,76.80
2018-02-13T01:54:38.255Z,76.50
2018-02-13T01:57:05.762Z,76.60
2018-02-13T01:59:34.015Z,77.80
2018-02-13T02:02:01.548Z,78.40
2018-02-13T02:04:29.053Z,77.70
2018-02-13T02:06:56.556Z,78.10
2018-02-13T02:09:24.066Z,78.40
2018-02-13T02:11:51.565Z,78.00
2018-02-13T02:14:19.853Z,78.20
2018-02-13T02:16:48.115Z,78.70
2018-02-13T02:19:16.476Z,79.00
2018-02-13T02:21:44.036Z,78.90
2018-02-13T02:24:11.528Z,78.60
2018-02-13T02:26:39.038Z,78.50
2018-02-13T02:29:06.527Z,78.60
2018-02-13T02:31:34.558Z,79.10
2018-02-13T02:34:02.059Z,78.80
2018-02-13T02:36:30.785Z,78.20
2018-02-13T02:38:58.284Z,78.10
2018-02-13T02:41:25.848Z,77.70
2018-02-13T02:43:53.322Z,77.50
2018-02-13T02:46:20.812Z,77.60
2018-02-13T02:48:48.331Z,77.80
2018-02-13T02:51:15.829Z,78.20
2018-02-13T02:53:43.363Z,79.90
2018-02-13T02:56:10.844Z,81.30
2018-02-13T02:58:38.345Z,82.40
2018-02-13T03:01:05.903Z,82.30
2018-02-13T03:03:33.402Z,82.40
2018-02-13T03:06:01.727Z,81.80
2018-02-13T03:08:29.216Z,81.80
2018-02-13T03:10:56.711Z,81.10
2018-02-13T03:13:24.213Z,80.70
2018-02-13T03:15:51.707Z,81.30
2018-02-13T03:18:19.200Z,81.00
2018-02-13T03:20:46.684Z,80.50
2018-02-13T03:23:14.207Z,80.10
2018-02-13T03:25:41.734Z,80.60
2018-02-13T03:28:09.232Z,80.80
2018-02-13T03:30:36.756Z,81.10
2018-02-13T03:33:04.271Z,81.40
2018-02-13T03:35:32.615Z,81.40
2018-02-13T03:38:00.111Z,81.30
2018-02-13T03:40:28.391Z,81.60
2018-02-13T03:42:59.084Z,81.70
2018-02-13T03:45:26.584Z,81.50
2018-02-13T03:47:54.136Z,81.80
2018-02-13T03:50:22.388Z,82.10
2018-02-13T03:52:49.885Z,82.10
2018-02-13T03:55:17.458Z,82.30
2018-02-13T03:57:45.721Z,82.50
2018-02-13T04:00:13.219Z,82.50
2018-02-13T04:02:41.502Z,82.80
2018-02-13T04:05:09.001Z,82.80
2018-02-13T04:07:36.498Z,82.90
2018-02-13T04:10:03.993Z,83.10
2018-02-13T04:12:31.489Z,83.00
2018-02-13T04:14:59.089Z,83.00
2018-02-13T04:17:26.568Z,83.10
2018-02-13T04:19:54.836Z,83.30
2018-02-13T04:22:22.334Z,83.30
2018-02-13T04:24:49.834Z,83.40
2018-02-13T04:27:17.333Z,83.50
2018-02-13T04:29:45.589Z,83.70
2018-02-13T04:32:13.110Z,83.70
2018-02-13T04:34:40.612Z,84.10
2018-02-13T04:37:08.117Z,84.50
2018-02-13T04:39:36.399Z,83.40
2018-02-13T04:42:04.658Z,83.30
2018-02-13T04:44:32.158Z,83.30
2018-02-13T04:46:59.636Z,84.10
2018-02-13T04:49:27.141Z,83.30
2018-02-13T04:51:54.635Z,83.20
2018-02-13T04:54:22.140Z,83.20
2018-02-13T04:56:49.639Z,83.00
2018-02-13T04:59:17.142Z,82.80
2018-02-13T05:01:44.655Z,83.00
2018-02-13T05:04:13.753Z,83.40
2018-02-13T05:06:41.767Z,83.40
2018-02-13T05:09:09.291Z,83.30
2018-02-13T05:11:36.790Z,83.40
2018-02-13T05:14:04.295Z,83.60
2018-02-13T05:16:31.773Z,83.50
2018-02-13T05:18:59.273Z,83.40
2018-02-13T05:21:26.767Z,83.40
2018-02-13T05:23:54.268Z,83.30
2018-02-13T05:26:21.768Z,82.80
2018-02-13T05:28:49.260Z,83.00
2018-02-13T05:31:16.758Z,83.10
2018-02-13T05:33:44.259Z,83.00
2018-02-13T05:36:11.754Z,82.80
2018-02-13T05:38:39.240Z,82.60
2018-02-13T05:41:06.748Z,82.50
2018-02-13T05:43:34.232Z,82.50
2018-02-13T05:46:01.755Z,82.90
2018-02-13T05:48:30.026Z,82.50
2018-02-13T05:50:57.577Z,82.40
2018-02-13T05:53:25.025Z,82.10
2018-02-13T05:55:52.528Z,82.10
2018-02-13T05:58:20.842Z,81.80
2018-02-13T06:00:48.434Z,81.80
2018-02-13T06:03:16.033Z,81.80
2018-02-13T06:05:44.301Z,81.00
2018-02-13T06:08:11.840Z,81.00
2018-02-13T06:10:39.364Z,81.10
2018-02-13T06:13:06.883Z,81.20
2018-02-13T06:15:34.389Z,80.80
2018-02-13T06:18:01.899Z,80.30
2018-02-13T06:20:29.400Z,80.50
2018-02-13T06:22:57.704Z,81.30
2018-02-13T06:25:25.225Z,81.60
2018-02-13T06:27:53.489Z,81.20
2018-02-13T06:30:20.988Z,81.20
2018-02-13T06:32:49.250Z,80.90
2018-02-13T06:35:16.763Z,80.80
2018-02-13T06:37:44.294Z,80.80
2018-02-13T06:40:12.555Z,80.70
2018-02-13T06:42:40.058Z,80.70
2018-02-13T06:45:07.586Z,80.80
2018-02-13T06:47:35.890Z,81.20
2018-02-13T06:50:03.464Z,81.20
2018-02-13T06:52:30.935Z,81.00
2018-02-13T06:54:58.425Z,81.30
2018-02-13T06:57:25.942Z,81.00
2018-02-13T06:59:54.195Z,80.50
2018-02-13T07:02:21.695Z,80.30
2018-02-13T07:04:49.191Z,79.90
2018-02-13T07:07:16.683Z,80.00
2018-02-13T07:09:44.195Z,79.40
2018-02-13T07:12:11.923Z,79.00
2018-02-13T07:14:39.415Z,79.40
2018-02-13T07:17:06.924Z,78.90
2018-02-13T07:19:34.444Z,78.40
2018-02-13T07:22:02.011Z,78.50
2018-02-13T07:24:29.516Z,78.70
2018-02-13T07:26:57.013Z,78.80
2018-02-13T07:29:25.253Z,78.20
2018-02-13T07:31:52.849Z,78.20
2018-02-13T07:34:21.153Z,77.90
2018-02-13T07:36:49.356Z,77.60
2018-02-13T07:39:16.850Z,77.40
2018-02-13T07:41:44.356Z,76.90
2018-02-13T07:44:11.876Z,77.10
2018-02-13T07:46:39.380Z,77.00
2018-02-13T07:49:07.632Z,76.70
2018-02-13T07:51:35.899Z,76.50
2018-02-13T07:54:03.407Z,76.50
2018-02-13T07:56:30.971Z,76.40
2018-02-13T07:58:58.491Z,76.50
2018-02-13T08:01:26.006Z,76.90
2018-02-13T08:03:53.544Z,76.10
2018-02-13T08:06:21.826Z,75.60
2018-02-13T08:08:50.514Z,74.90
2018-02-13T08:11:18.020Z,74.80
2018-02-13T08:13:45.807Z,74.50
2018-02-13T08:16:13.310Z,74.20
2018-02-13T08:18:41.604Z,73.30
2018-02-13T08:21:09.892Z,73.10
2018-02-13T08:23:37.396Z,73.10
2018-02-13T08:26:04.915Z,72.70
2018-02-13T08:28:33.355Z,72.60
2018-02-13T08:31:01.980Z,71.80
2018-02-13T08:33:29.503Z,71.80
2018-02-13T08:35:57.085Z,71.60
2018-02-13T08:38:25.370Z,71.50
2018-02-13T08:40:52.868Z,71.50
2018-02-13T08:43:20.449Z,71.40
2018-02-13T08:45:47.947Z,70.90
2018-02-13T08:48:15.470Z,70.40
2018-02-13T08:50:42.984Z,70.50
2018-02-13T08:53:10.521Z,70.30
2018-02-13T08:55:38.050Z,70.50
2018-02-13T08:58:05.570Z,70.20
2018-02-13T09:00:33.102Z,69.40
2018-02-13T09:03:00.616Z,68.50
2018-02-13T09:05:28.882Z,68.20
2018-02-13T09:07:56.409Z,68.20
2018-02-13T09:10:23.921Z,68.10
2018-02-13T09:12:52.538Z,68.00
2018-02-13T09:15:20.041Z,68.00
2018-02-13T09:17:47.550Z,68.00
2018-02-13T09:20:15.847Z,67.50
2018-02-13T09:22:44.079Z,66.90
2018-02-13T09:25:11.589Z,66.90
2018-02-13T09:27:39.730Z,66.50
2018-02-13T09:30:08.006Z,66.70
2018-02-13T09:32:35.500Z,66.70
2018-02-13T09:35:03.024Z,66.70
2018-02-13T09:37:30.530Z,66.40
2018-02-13T09:39:58.042Z,66.50
2018-02-13T09:42:25.562Z,65.50
2018-02-13T09:44:53.093Z,65.70
2018-02-13T09:47:21.377Z,65.50
2018-02-13T09:49:49.653Z,65.00
2018-02-13T09:52:17.182Z,65.00
2018-02-13T09:54:45.242Z,65.00
2018-02-13T09:57:12.770Z,64.70
2018-02-13T09:59:41.044Z,64.80
2018-02-13T10:02:09.328Z,64.80
2018-02-13T10:04:37.641Z,65.00
2018-02-13T10:07:05.156Z,65.00
2018-02-13T10:09:32.689Z,63.80
2018-02-13T10:12:00.192Z,63.70
2018-02-13T10:14:28.479Z,64.00
2018-02-13T10:16:56.754Z,64.30
2018-02-13T10:19:25.031Z,64.00
2018-02-13T10:21:53.307Z,63.60
2018-02-13T10:24:20.845Z,63.50
2018-02-13T10:26:48.352Z,63.10
2018-02-13T10:29:16.633Z,63.60
2018-02-13T10:31:44.893Z,63.10
2018-02-13T10:34:13.905Z,63.40
2018-02-13T10:36:42.183Z,63.00
2018-02-13T10:39:10.456Z,63.10
2018-02-13T10:41:38.746Z,63.10
2018-02-13T10:44:07.008Z,62.70
2018-02-13T10:46:34.536Z,62.70
2018-02-13T10:49:02.028Z,62.20
2018-02-13T10:51:29.528Z,61.50
2018-02-13T10:53:57.785Z,61.80
2018-02-13T10:56:25.286Z,61.80
2018-02-13T10:58:52.763Z,61.20
2018-02-13T11:01:25.865Z,61.20
2018-02-13T11:03:53.351Z,59.70
2018-02-13T11:06:21.865Z,58.90
2018-02-13T11:08:50.125Z,58.80
2018-02-13T11:11:17.628Z,58.70
2018-02-13T11:13:45.123Z,58.80
2018-02-13T11:16:12.642Z,59.30
2018-02-13T11:18:41.158Z,58.50
2018-02-13T11:21:08.697Z,58.50
2018-02-13T11:23:36.960Z,57.60
2018-02-13T11:26:05.239Z,57.30
2018-02-13T11:28:32.737Z,57.20
2018-02-13T11:31:01.606Z,57.10
2018-02-13T11:33:29.891Z,57.10
2018-02-13T11:35:58.243Z,57.70
2018-02-13T11:38:25.744Z,57.20
2018-02-13T11:40:53.245Z,57.30
2018-02-13T11:43:20.736Z,55.70
2018-02-13T11:45:48.373Z,56.50
2018-02-13T11:48:15.893Z,55.70
2018-02-13T11:50:44.169Z,56.30
2018-02-13T11:53:12.498Z,56.00
2018-02-13T11:55:40.036Z,56.00
2018-02-13T11:58:07.540Z,54.70
2018-02-13T12:00:35.064Z,55.30
2018-02-13T12:03:02.569Z,54.50
2018-02-13T12:05:30.097Z,54.90
2018-02-13T12:07:57.736Z,55.10
2018-02-13T12:10:26.024Z,55.40
2018-02-13T12:12:53.573Z,55.40
2018-02-13T12:15:21.110Z,54.60
2018-02-13T12:17:48.641Z,54.50
2018-02-13T12:20:16.387Z,54.50
2018-02-13T12:22:44.018Z,53.10
2018-02-13T12:25:11.544Z,53.20
2018-02-13T12:27:39.075Z,53.10
2018-02-13T12:30:07.429Z,52.40
2018-02-13T12:32:34.949Z,52.40
2018-02-13T12:35:02.474Z,53.10
2018-02-13T12:37:30.882Z,53.00
2018-02-13T12:39:58.415Z,53.00
2018-02-13T12:42:26.673Z,52.80
2018-02-13T12:44:54.193Z,52.80
2018-02-13T12:47:21.700Z,52.90
2018-02-13T12:49:49.208Z,52.40
2018-02-13T12:52:16.711Z,52.80
2018-02-13T12:54:44.214Z,52.00
2018-02-13T12:57:11.706Z,51.30
2018-02-13T12:59:39.226Z,50.80
2018-02-13T13:02:06.752Z,51.20
2018-02-13T13:04:34.262Z,51.20
2018-02-13T13:07:01.792Z,50.50
2018-02-13T13:09:29.381Z,50.60
2018-02-13T13:11:56.915Z,50.00
2018-02-13T13:14:24.435Z,50.60
2018-02-13T13:16:52.716Z,50.10
2018-02-13T13:19:20.974Z,50.60
2018-02-13T13:21:48.495Z,50.60
2018-02-13T13:24:16.008Z,50.80
2018-02-13T13:26:44.289Z,51.00
2018-02-13T13:29:12.582Z,50.70
2018-02-13T13:31:40.905Z,51.50
2018-02-13T13:34:08.389Z,51.50
2018-02-13T13:36:35.892Z,51.40
2018-02-13T13:39:04.189Z,52.70
2018-02-13T13:41:31.748Z,52.70
2018-02-13T13:43:59.258Z,52.70
2018-02-13T13:46:27.697Z,53.00
2018-02-13T13:48:55.229Z,53.40
2018-02-13T13:51:22.741Z,52.60
2018-02-13T13:53:50.313Z,52.30
2018-02-13T13:56:17.818Z,52.50
2018-02-13T13:58:46.270Z,52.40
2018-02-13T14:01:13.802Z,52.50
2018-02-13T14:03:41.304Z,52.80
2018-02-13T14:06:08.821Z,53.10
2018-02-13T14:08:36.422Z,52.90
2018-02-13T14:11:03.935Z,52.70
2018-02-13T14:13:32.218Z,52.50
2018-02-13T14:16:00.527Z,53.50
2018-02-13T14:18:28.025Z,53.50
2018-02-13T14:20:55.551Z,53.90
2018-02-13T14:23:23.052Z,53.00
2018-02-13T14:25:50.587Z,53.10
2018-02-13T14:28:18.088Z,51.90
2018-02-13T14:30:45.601Z,51.40
2018-02-13T14:33:13.120Z,51.70
2018-02-13T14:35:40.648Z,51.80
2018-02-13T14:38:08.233Z,51.90
2018-02-13T14:40:35.749Z,49.90
2018-02-13T14:43:04.857Z,49.50
2018-02-13T14:45:32.383Z,49.50
2018-02-13T14:47:59.889Z,50.20
2018-02-13T14:50:27.478Z,49.60
2018-02-13T14:52:54.995Z,50.60
2018-02-13T14:55:23.275Z,51.50
2018-02-13T14:57:50.792Z,51.40
2018-02-13T15:00:18.320Z,51.40
2018-02-13T15:02:45.856Z,51.40
2018-02-13T15:05:14.118Z,51.50
2018-02-13T15:07:41.753Z,51.50
2018-02-13T15:10:09.311Z,51.80
2018-02-13T15:12:36.868Z,51.60
2018-02-13T15:15:14.270Z,51.80
2018-02-13T15:17:41.793Z,52.00
2018-02-13T15:20:10.104Z,51.60
2018-02-13T15:22:37.620Z,51.50
2018-02-13T15:25:05.118Z,51.50
2018-02-13T15:27:33.709Z,51.40
2018-02-13T15:30:01.284Z,51.90
2018-02-13T15:32:28.875Z,51.90
2018-02-13T15:34:56.357Z,51.30
2018-02-13T15:37:23.887Z,51.00
2018-02-13T15:39:51.434Z,51.60
2018-02-13T15:42:19.066Z,52.00
2018-02-13T15:44:47.360Z,51.20
2018-02-13T15:47:17.538Z,51.70
2018-02-13T15:49:45.104Z,51.50
2018-02-13T15:52:12.657Z,52.20
2018-02-13T15:54:40.156Z,51.70
2018-02-13T15:57:07.656Z,51.80
2018-02-13T15:59:35.184Z,52.20
2018-02-13T16:02:02.815Z,52.00
2018-02-13T16:04:30.354Z,52.10
2018-02-13T16:06:57.892Z,52.20
2018-02-13T16:09:26.172Z,53.00
2018-02-13T16:11:54.490Z,53.10
2018-02-13T16:14:22.012Z,53.10
2018-02-13T16:16:50.290Z,53.40
2018-02-13T16:19:18.089Z,53.40
2018-02-13T16:21:45.658Z,53.60
2018-02-13T16:24:13.182Z,54.00
2018-02-13T16:26:40.726Z,54.00
2018-02-13T16:29:08.205Z,53.70
2018-02-13T16:31:36.513Z,54.10
2018-02-13T16:34:04.803Z,53.10
2018-02-13T16:36:32.326Z,53.10
2018-02-13T16:38:59.861Z,53.20
2018-02-13T16:41:27.382Z,53.20
2018-02-13T16:43:55.639Z,53.90
2018-02-13T16:46:23.157Z,53.90
2018-02-13T16:48:50.660Z,54.00
2018-02-13T16:51:18.230Z,55.00
2018-02-13T16:53:46.536Z,56.80
2018-02-13T16:56:14.847Z,56.70
2018-02-13T16:58:42.373Z,56.70
2018-02-13T17:01:11.510Z,57.80
2018-02-13T17:03:39.032Z,57.80
2018-02-13T17:06:07.298Z,58.40
2018-02-13T17:08:35.680Z,59.10
2018-02-13T17:11:03.198Z,59.10
2018-02-13T17:13:30.727Z,59.30
2018-02-13T17:15:59.004Z,59.90
2018-02-13T17:18:27.516Z,59.80
2018-02-13T17:20:56.481Z,59.80
2018-02-13T17:23:24.760Z,59.80
2018-02-13T17:25:53.028Z,60.00
2018-02-13T17:28:20.554Z,60.00
2018-02-13T17:30:48.081Z,60.70
2018-02-13T17:33:15.611Z,61.00
2018-02-13T17:35:43.165Z,60.70
2018-02-13T17:38:10.675Z,60.70
2018-02-13T17:40:38.222Z,61.70
2018-02-13T17:43:05.797Z,62.10
2018-02-13T17:45:34.108Z,61.80
2018-02-13T17:48:01.644Z,61.90
2018-02-13T17:50:29.908Z,62.40
2018-02-13T17:52:57.417Z,62.40
2018-02-13T17:55:24.997Z,62.30
2018-02-13T17:57:52.550Z,62.70
2018-02-13T18:00:20.078Z,62.40
2018-02-13T18:02:48.355Z,63.20
2018-02-13T18:05:16.634Z,63.50
2018-02-13T18:07:44.296Z,63.40
2018-02-13T18:10:12.572Z,63.80
2018-02-13T18:12:40.941Z,63.80
2018-02-13T18:15:08.499Z,63.70
2018-02-13T18:17:36.572Z,63.60
2018-02-13T18:20:04.097Z,63.70
2018-02-13T18:22:31.596Z,63.90
2018-02-13T18:24:59.156Z,63.90
2018-02-13T18:27:26.965Z,63.90
2018-02-13T18:29:55.403Z,64.20
2018-02-13T18:32:23.082Z,64.20
2018-02-13T18:34:50.650Z,64.20
2018-02-13T18:37:18.157Z,64.40
2018-02-13T18:39:46.772Z,64.60
2018-02-13T18:42:14.375Z,65.30
2018-02-13T18:44:41.860Z,64.70
2018-02-13T18:47:10.135Z,65.00
2018-02-13T18:49:38.437Z,65.40
2018-02-13T18:52:05.947Z,65.00
2018-02-13T18:54:33.460Z,64.80
2018-02-13T18:57:01.750Z,65.10
2018-02-13T18:59:29.264Z,65.10
2018-02-13T19:01:56.777Z,65.40
2018-02-13T19:04:25.020Z,65.50
2018-02-13T19:06:53.347Z,65.40
2018-02-13T19:09:21.717Z,65.50
2018-02-13T19:11:49.235Z,65.40
2018-02-13T19:14:16.767Z,65.50
2018-02-13T19:19:12.606Z,65.80
2018-02-13T19:21:40.169Z,65.80
2018-02-13T19:24:07.693Z,66.00
2018-02-13T19:26:35.211Z,66.00
2018-02-13T19:29:02.756Z,65.90
2018-02-13T19:31:30.272Z,66.00
2018-02-13T19:33:57.863Z,66.20
2018-02-13T19:36:26.155Z,65.80
2018-02-13T19:38:54.515Z,65.80
2018-02-13T19:41:22.779Z,66.60
2018-02-13T19:43:50.352Z,66.40
2018-02-13T19:46:17.880Z,66.60
2018-02-13T19:48:45.417Z,66.60
2018-02-13T19:51:12.939Z,66.50
2018-02-13T19:53:40.562Z,66.60
2018-02-13T19:56:08.059Z,66.70
2018-02-13T19:58:35.578Z,66.80
2018-02-13T20:01:03.097Z,66.60
2018-02-13T20:03:30.632Z,66.50
2018-02-13T20:05:58.600Z,66.90
2018-02-13T20:08:26.124Z,67.10
2018-02-13T20:10:53.787Z,67.30
2018-02-13T20:13:22.078Z,67.60
2018-02-13T20:15:49.694Z,67.60
2018-02-13T20:18:17.213Z,67.60
2018-02-13T20:20:44.742Z,67.50
2018-02-13T20:23:12.268Z,67.40
2018-02-13T20:25:39.830Z,67.50
2018-02-13T20:28:07.441Z,67.70
2018-02-13T20:30:34.952Z,67.70
2018-02-13T20:33:02.472Z,67.80
2018-02-13T20:35:35.696Z,67.50
2018-02-13T20:38:03.598Z,67.40
2018-02-13T20:40:32.076Z,67.50
2018-02-13T20:42:59.722Z,67.30
2018-02-13T20:45:27.276Z,67.70
2018-02-13T20:47:55.897Z,68.30
2018-02-13T20:50:25.617Z,68.30
2018-02-13T20:52:53.280Z,68.10
2018-02-13T20:55:21.314Z,68.00
2018-02-13T20:57:49.590Z,68.00
2018-02-13T21:00:18.086Z,68.00
2018-02-13T21:02:46.428Z,68.00
2018-02-13T21:05:14.261Z,68.00
2018-02-13T21:07:41.786Z,68.90
2018-02-13T21:10:10.100Z,68.30
2018-02-13T21:12:37.617Z,68.30
2018-02-13T21:15:05.949Z,68.70
2018-02-13T21:17:35.134Z,68.70
2018-02-13T21:20:03.280Z,68.40
2018-02-13T21:22:31.035Z,68.30
2018-02-13T21:24:58.919Z,68.00
2018-02-13T21:27:26.487Z,67.90
2018-02-13T21:29:55.552Z,68.10
2018-02-13T21:32:23.167Z,68.00
2018-02-13T21:34:50.801Z,68.30
2018-02-13T21:37:20.542Z,68.40
2018-02-13T21:39:48.907Z,69.00
2018-02-13T21:42:17.490Z,69.00
2018-02-13T21:44:44.985Z,68.90
2018-02-13T21:47:13.394Z,69.30
2018-02-13T21:49:41.909Z,69.30
2018-02-13T21:52:09.424Z,69.40
2018-02-13T21:54:36.920Z,69.30
2018-02-13T21:57:04.496Z,69.70
2018-02-13T21:59:31.993Z,69.80
2018-02-13T22:02:00.269Z,70.20
2018-02-13T22:04:27.812Z,70.10
2018-02-13T22:06:55.945Z,70.80
2018-02-13T22:09:23.443Z,70.10
2018-02-13T22:11:50.977Z,70.20
2018-02-13T22:14:18.812Z,70.50
2018-02-13T22:16:46.350Z,70.50
2018-02-13T22:19:13.884Z,70.70
2018-02-13T22:21:41.547Z,70.80
2018-02-13T22:24:11.089Z,71.00
2018-02-13T22:26:38.611Z,71.30
2018-02-13T22:29:06.236Z,71.10
2018-02-13T22:31:33.734Z,71.70
2018-02-13T22:34:01.254Z,70.90
2018-02-13T22:36:28.748Z,71.00
2018-02-13T22:38:58.044Z,71.40
2018-02-13T22:41:26.324Z,71.80
2018-02-13T22:43:54.602Z,71.80
2018-02-13T22:46:22.116Z,71.80
2018-02-13T22:48:49.617Z,71.90
2018-02-13T22:51:17.130Z,72.20
2018-02-13T22:53:44.652Z,72.50
2018-02-13T22:56:12.959Z,72.70
2018-02-13T22:58:40.472Z,72.50
2018-02-13T23:01:07.982Z,72.50
2018-02-13T23:03:35.540Z,72.60
2018-02-13T23:06:03.806Z,72.70
2018-02-13T23:08:32.141Z,72.70
2018-02-13T23:10:59.645Z,72.50
2018-02-13T23:13:27.148Z,72.60
2018-02-13T23:15:54.674Z,72.80
2018-02-13T23:18:22.973Z,72.90
2018-02-13T23:20:52.527Z,73.00
2018-02-13T23:23:20.021Z,73.00
2018-02-13T23:25:47.520Z,73.00
2018-02-13T23:28:15.049Z,73.20
2018-02-13T23:30:42.595Z,73.20
2018-02-13T23:33:10.087Z,73.40
2018-02-13T23:35:38.362Z,73.40
2018-02-13T23:38:05.885Z,73.30
2018-02-13T23:40:33.383Z,73.20
2018-02-13T23:43:01.690Z,73.20
2018-02-13T23:45:29.983Z,73.40
2018-02-13T23:47:57.504Z,73.40
2018-02-13T23:50:25.011Z,73.90
2018-02-13T23:52:52.520Z,73.20
2018-02-13T23:55:20.031Z,73.30
2018-02-13T23:57:47.555Z,73.50
